sensor_id;sensor_type;location;lat;lon;timestamp;pressure;altitude;pressure_sealevel;temperature;humidity
4149;BME280;2088;51.032;7.082;2022-10-04T00:02:04;49019.91;;;-142.28;100.00
4149;BME280;2088;51.032;7.082;2022-10-04T00:04:40;48981.19;;;-142.28;100.00
4149;BME280;2088;51.032;7.082;2022-10-04T00:07:15;49016.03;;;-142.28;100.00
4149;BME280;2088;51.032;7.082;2022-10-04T00:09:45;49010.22;;;-142.28;100.00
4149;BME280;2088;51.032;7.082;2022-10-04T00:12:18;49039.25;;;-142.28;100.00
4149;BME280;2088;51.032;7.082;2022-10-04T00:14:46;49023.78;;;-142.28;100.00
4149;BME280;2088;51.032;7.082;2022-10-04T00:17:20;49006.34;;;-142.28;100.00
4149;BME280;2088;51.032;7.082;2022-10-04T00:19:50;48981.19;;;-142.28;100.00
4149;BME280;2088;51.032;7.082;2022-10-04T00:22:19;48969.56;;;-142.28;100.00
4149;BME280;2088;51.032;7.082;2022-10-04T00:25:17;48996.69;;;-142.28;100.00
4149;BME280;2088;51.032;7.082;2022-10-04T00:28:26;48994.75;;;-142.28;100.00
4149;BME280;2088;51.032;7.082;2022-10-04T00:31:13;48961.84;;;-142.28;100.00
4149;BME280;2088;51.032;7.082;2022-10-04T00:33:41;48971.50;;;-142.28;100.00
4149;BME280;2088;51.032;7.082;2022-10-04T00:36:34;49008.28;;;-142.28;100.00
4149;BME280;2088;51.032;7.082;2022-10-04T00:39:36;49021.84;;;-142.28;100.00
4149;BME280;2088;51.032;7.082;2022-10-04T00:42:13;49043.13;;;-142.28;100.00
4149;BME280;2088;51.032;7.082;2022-10-04T00:44:46;49035.38;;;-142.28;100.00
4149;BME280;2088;51.032;7.082;2022-10-04T00:47:22;49021.84;;;-142.28;100.00
4149;BME280;2088;51.032;7.082;2022-10-04T00:49:53;48971.50;;;-142.28;100.00
4149;BME280;2088;51.032;7.082;2022-10-04T00:52:25;48948.28;;;-142.28;100.00
4149;BME280;2088;51.032;7.082;2022-10-04T00:54:56;48911.50;;;-142.28;100.00
4149;BME280;2088;51.032;7.082;2022-10-04T00:57:27;48927.00;;;-142.28;100.00
4149;BME280;2088;51.032;7.082;2022-10-04T00:59:58;48911.50;;;-142.28;100.00
4149;BME280;2088;51.032;7.082;2022-10-04T01:02:30;48928.94;;;-142.28;100.00
4149;BME280;2088;51.032;7.082;2022-10-04T01:05:00;48981.19;;;-142.28;100.00
4149;BME280;2088;51.032;7.082;2022-10-04T01:07:32;49019.91;;;-142.28;100.00
4149;BME280;2088;51.032;7.082;2022-10-04T01:10:06;49006.34;;;-142.28;100.00
4149;BME280;2088;51.032;7.082;2022-10-04T01:12:42;49017.97;;;-142.28;100.00
4149;BME280;2088;51.032;7.082;2022-10-04T01:15:14;49006.34;;;-142.28;100.00
4149;BME280;2088;51.032;7.082;2022-10-04T01:18:05;48987.00;;;-142.28;100.00
4149;BME280;2088;51.032;7.082;2022-10-04T01:20:33;48994.75;;;-142.28;100.00
4149;BME280;2088;51.032;7.082;2022-10-04T01:23:02;48938.59;;;-142.28;100.00
4149;BME280;2088;51.032;7.082;2022-10-04T01:25:44;48936.66;;;-142.28;100.00
4149;BME280;2088;51.032;7.082;2022-10-04T01:28:11;48961.84;;;-142.28;100.00
4149;BME280;2088;51.032;7.082;2022-10-04T01:30:38;48957.97;;;-142.28;100.00
4149;BME280;2088;51.032;7.082;2022-10-04T01:33:04;48975.38;;;-142.28;100.00
4149;BME280;2088;51.032;7.082;2022-10-04T01:35:32;48992.81;;;-142.28;100.00
4149;BME280;2088;51.032;7.082;2022-10-04T01:38:02;48967.63;;;-142.28;100.00
4149;BME280;2088;51.032;7.082;2022-10-04T01:40:30;49000.53;;;-142.28;100.00
4149;BME280;2088;51.032;7.082;2022-10-04T01:43:01;48988.94;;;-142.28;100.00
4149;BME280;2088;51.032;7.082;2022-10-04T01:45:32;48994.75;;;-142.28;100.00
4149;BME280;2088;51.032;7.082;2022-10-04T01:48:03;49031.53;;;-142.28;100.00
4149;BME280;2088;51.032;7.082;2022-10-04T01:50:33;49025.72;;;-142.28;100.00
4149;BME280;2088;51.032;7.082;2022-10-04T01:53:10;49047.00;;;-142.28;100.00
4149;BME280;2088;51.032;7.082;2022-10-04T01:55:40;49010.22;;;-142.28;100.00
4149;BME280;2088;51.032;7.082;2022-10-04T01:58:12;49052.81;;;-142.28;100.00
4149;BME280;2088;51.032;7.082;2022-10-04T02:00:45;49074.09;;;-142.28;100.00
4149;BME280;2088;51.032;7.082;2022-10-04T02:03:15;49072.16;;;-142.28;100.00
4149;BME280;2088;51.032;7.082;2022-10-04T02:05:49;49120.56;;;-142.28;100.00
4149;BME280;2088;51.032;7.082;2022-10-04T02:08:23;49097.34;;;-142.28;100.00
4149;BME280;2088;51.032;7.082;2022-10-04T02:10:51;49108.94;;;-142.28;100.00
4149;BME280;2088;51.032;7.082;2022-10-04T02:13:20;49089.59;;;-142.28;100.00
4149;BME280;2088;51.032;7.082;2022-10-04T02:15:48;49145.72;;;-142.28;100.00
4149;BME280;2088;51.032;7.082;2022-10-04T02:18:17;49143.78;;;-142.28;100.00
4149;BME280;2088;51.032;7.082;2022-10-04T02:20:46;49151.53;;;-142.28;100.00
4149;BME280;2088;51.032;7.082;2022-10-04T02:23:15;49087.66;;;-142.28;100.00
4149;BME280;2088;51.032;7.082;2022-10-04T02:25:44;49112.81;;;-142.28;100.00
4149;BME280;2088;51.032;7.082;2022-10-04T02:28:12;49116.69;;;-142.28;100.00
4149;BME280;2088;51.032;7.082;2022-10-04T02:30:41;49143.78;;;-142.28;100.00
4149;BME280;2088;51.032;7.082;2022-10-04T02:33:29;49147.66;;;-142.28;100.00
4149;BME280;2088;51.032;7.082;2022-10-04T02:35:54;49136.06;;;-142.28;100.00
4149;BME280;2088;51.032;7.082;2022-10-04T02:38:24;49132.19;;;-142.28;100.00
4149;BME280;2088;51.032;7.082;2022-10-04T02:41:01;49137.97;;;-142.28;100.00
4149;BME280;2088;51.032;7.082;2022-10-04T02:43:34;49122.50;;;-142.28;100.00
4149;BME280;2088;51.032;7.082;2022-10-04T02:46:07;49116.69;;;-142.28;100.00
4149;BME280;2088;51.032;7.082;2022-10-04T02:48:38;49089.59;;;-142.28;100.00
4149;BME280;2088;51.032;7.082;2022-10-04T02:51:18;49132.19;;;-142.28;100.00
4149;BME280;2088;51.032;7.082;2022-10-04T02:53:52;49147.66;;;-142.28;100.00
4149;BME280;2088;51.032;7.082;2022-10-04T02:56:23;49155.41;;;-142.28;100.00
4149;BME280;2088;51.032;7.082;2022-10-04T02:58:51;49174.75;;;-142.28;100.00
4149;BME280;2088;51.032;7.082;2022-10-04T03:01:24;49163.16;;;-142.28;100.00
4149;BME280;2088;51.032;7.082;2022-10-04T03:03:52;49186.38;;;-142.28;100.00
4149;BME280;2088;51.032;7.082;2022-10-04T03:06:21;49178.63;;;-142.28;100.00
4149;BME280;2088;51.032;7.082;2022-10-04T03:08:51;49163.16;;;-142.28;100.00
4149;BME280;2088;51.032;7.082;2022-10-04T03:11:20;49190.25;;;-142.28;100.00
4149;BME280;2088;51.032;7.082;2022-10-04T03:13:51;49198.00;;;-142.28;100.00
4149;BME280;2088;51.032;7.082;2022-10-04T03:16:19;49168.97;;;-142.28;100.00
4149;BME280;2088;51.032;7.082;2022-10-04T03:18:47;49176.69;;;-142.28;100.00
4149;BME280;2088;51.032;7.082;2022-10-04T03:21:16;49174.75;;;-142.28;100.00
4149;BME280;2088;51.032;7.082;2022-10-04T03:23:45;49170.91;;;-142.28;100.00
4149;BME280;2088;51.032;7.082;2022-10-04T03:26:20;49178.63;;;-142.28;100.00
4149;BME280;2088;51.032;7.082;2022-10-04T03:28:50;49159.28;;;-142.28;100.00
4149;BME280;2088;51.032;7.082;2022-10-04T03:31:17;49122.50;;;-142.28;100.00
4149;BME280;2088;51.032;7.082;2022-10-04T03:33:45;49118.63;;;-142.28;100.00
4149;BME280;2088;51.032;7.082;2022-10-04T03:36:13;49153.47;;;-142.28;100.00
4149;BME280;2088;51.032;7.082;2022-10-04T03:38:42;49167.03;;;-142.28;100.00
4149;BME280;2088;51.032;7.082;2022-10-04T03:41:10;49161.22;;;-142.28;100.00
4149;BME280;2088;51.032;7.082;2022-10-04T03:43:41;49182.50;;;-142.28;100.00
4149;BME280;2088;51.032;7.082;2022-10-04T03:46:11;49184.44;;;-142.28;100.00
4149;BME280;2088;51.032;7.082;2022-10-04T03:48:42;49174.75;;;-142.28;100.00
4149;BME280;2088;51.032;7.082;2022-10-04T03:51:13;49110.88;;;-142.28;100.00
4149;BME280;2088;51.032;7.082;2022-10-04T03:53:42;49097.34;;;-142.28;100.00
4149;BME280;2088;51.032;7.082;2022-10-04T03:56:11;49108.94;;;-142.28;100.00
4149;BME280;2088;51.032;7.082;2022-10-04T03:58:38;49099.28;;;-142.28;100.00
4149;BME280;2088;51.032;7.082;2022-10-04T04:04:01;49159.28;;;-142.28;100.00
4149;BME280;2088;51.032;7.082;2022-10-04T04:06:36;49192.19;;;-142.28;100.00
4149;BME280;2088;51.032;7.082;2022-10-04T04:09:07;49184.44;;;-142.28;100.00
4149;BME280;2088;51.032;7.082;2022-10-04T04:11:34;49209.59;;;-142.28;100.00
4149;BME280;2088;51.032;7.082;2022-10-04T04:14:05;49192.19;;;-142.28;100.00
4149;BME280;2088;51.032;7.082;2022-10-04T04:16:36;49182.50;;;-142.28;100.00
4149;BME280;2088;51.032;7.082;2022-10-04T04:19:10;49190.25;;;-142.28;100.00
4149;BME280;2088;51.032;7.082;2022-10-04T04:21:37;49213.47;;;-142.28;100.00
4149;BME280;2088;51.032;7.082;2022-10-04T04:24:10;49155.41;;;-142.28;100.00
4149;BME280;2088;51.032;7.082;2022-10-04T04:26:41;49132.19;;;-142.28;100.00
4149;BME280;2088;51.032;7.082;2022-10-04T04:29:14;49132.19;;;-142.28;100.00
4149;BME280;2088;51.032;7.082;2022-10-04T04:31:46;49128.31;;;-142.28;100.00
4149;BME280;2088;51.032;7.082;2022-10-04T04:34:19;49112.81;;;-142.28;100.00
4149;BME280;2088;51.032;7.082;2022-10-04T04:36:46;49101.22;;;-142.28;100.00
4149;BME280;2088;51.032;7.082;2022-10-04T04:39:15;49101.22;;;-142.28;100.00
4149;BME280;2088;51.032;7.082;2022-10-04T04:42:04;49128.31;;;-142.28;100.00
4149;BME280;2088;51.032;7.082;2022-10-04T04:44:32;49137.97;;;-142.28;100.00
4149;BME280;2088;51.032;7.082;2022-10-04T04:47:04;49163.16;;;-142.28;100.00
4149;BME280;2088;51.032;7.082;2022-10-04T04:49:36;49147.66;;;-142.28;100.00
4149;BME280;2088;51.032;7.082;2022-10-04T04:52:04;49174.75;;;-142.28;100.00
4149;BME280;2088;51.032;7.082;2022-10-04T04:54:31;49192.19;;;-142.28;100.00
4149;BME280;2088;51.032;7.082;2022-10-04T04:56:58;49209.59;;;-142.28;100.00
4149;BME280;2088;51.032;7.082;2022-10-04T04:59:25;49205.75;;;-142.28;100.00
4149;BME280;2088;51.032;7.082;2022-10-04T05:01:52;49199.94;;;-142.28;100.00
4149;BME280;2088;51.032;7.082;2022-10-04T05:04:21;49182.50;;;-142.28;100.00
4149;BME280;2088;51.032;7.082;2022-10-04T05:06:59;49170.91;;;-142.28;100.00
4149;BME280;2088;51.032;7.082;2022-10-04T05:09:28;49203.81;;;-142.28;100.00
4149;BME280;2088;51.032;7.082;2022-10-04T05:12:00;49300.59;;;-142.28;100.00
4149;BME280;2088;51.032;7.082;2022-10-04T05:14:28;49310.28;;;-142.28;100.00
4149;BME280;2088;51.032;7.082;2022-10-04T05:16:56;49316.09;;;-142.28;100.00
4149;BME280;2088;51.032;7.082;2022-10-04T05:19:26;49335.44;;;-142.28;100.00
4149;BME280;2088;51.032;7.082;2022-10-04T05:21:56;49298.66;;;-142.28;100.00
4149;BME280;2088;51.032;7.082;2022-10-04T05:24:26;49321.88;;;-142.28;100.00
4149;BME280;2088;51.032;7.082;2022-10-04T05:26:56;49325.75;;;-142.28;100.00
4149;BME280;2088;51.032;7.082;2022-10-04T05:29:25;49267.69;;;-142.28;100.00
4149;BME280;2088;51.032;7.082;2022-10-04T05:31:59;49298.66;;;-142.28;100.00
4149;BME280;2088;51.032;7.082;2022-10-04T05:34:31;49318.03;;;-142.28;100.00
4149;BME280;2088;51.032;7.082;2022-10-04T05:37:21;49281.22;;;-142.28;100.00
4149;BME280;2088;51.032;7.082;2022-10-04T05:40:02;49306.41;;;-142.28;100.00
4149;BME280;2088;51.032;7.082;2022-10-04T05:42:35;49321.88;;;-142.28;100.00
4149;BME280;2088;51.032;7.082;2022-10-04T05:45:11;49329.63;;;-142.28;100.00
4149;BME280;2088;51.032;7.082;2022-10-04T05:47:39;49333.50;;;-142.28;100.00
4149;BME280;2088;51.032;7.082;2022-10-04T05:50:15;49335.44;;;-142.28;100.00
4149;BME280;2088;51.032;7.082;2022-10-04T05:52:45;49360.59;;;-142.28;100.00
4149;BME280;2088;51.032;7.082;2022-10-04T05:55:24;49341.25;;;-142.28;100.00
4149;BME280;2088;51.032;7.082;2022-10-04T05:58:10;49356.72;;;-142.28;100.00
4149;BME280;2088;51.032;7.082;2022-10-04T06:00:57;49350.94;;;-142.28;100.00
4149;BME280;2088;51.032;7.082;2022-10-04T06:03:36;49383.84;;;-142.28;100.00
4149;BME280;2088;51.032;7.082;2022-10-04T06:06:15;49364.47;;;-142.28;100.00
4149;BME280;2088;51.032;7.082;2022-10-04T06:08:50;49345.13;;;-142.28;100.00
4149;BME280;2088;51.032;7.082;2022-10-04T06:11:29;49370.28;;;-142.28;100.00
4149;BME280;2088;51.032;7.082;2022-10-04T06:14:24;49378.03;;;-142.28;100.00
4149;BME280;2088;51.032;7.082;2022-10-04T06:17:11;49341.25;;;-142.28;100.00
4149;BME280;2088;51.032;7.082;2022-10-04T06:20:02;49329.63;;;-142.28;100.00
4149;BME280;2088;51.032;7.082;2022-10-04T06:22:41;49345.13;;;-142.28;100.00
4149;BME280;2088;51.032;7.082;2022-10-04T06:25:12;49302.53;;;-142.28;100.00
4149;BME280;2088;51.032;7.082;2022-10-04T06:27:44;49331.56;;;-142.28;100.00
4149;BME280;2088;51.032;7.082;2022-10-04T06:30:16;49279.31;;;-142.28;100.00
4149;BME280;2088;51.032;7.082;2022-10-04T06:33:02;49283.16;;;-142.28;100.00
4149;BME280;2088;51.032;7.082;2022-10-04T06:35:42;49269.63;;;-142.28;100.00
4149;BME280;2088;51.032;7.082;2022-10-04T06:38:24;49279.31;;;-142.28;100.00
4149;BME280;2088;51.032;7.082;2022-10-04T06:41:21;49283.16;;;-142.28;100.00
4149;BME280;2088;51.032;7.082;2022-10-04T06:44:01;49232.84;;;-142.28;100.00
4149;BME280;2088;51.032;7.082;2022-10-04T06:46:37;49240.59;;;-142.28;100.00
4149;BME280;2088;51.032;7.082;2022-10-04T06:49:32;49198.00;;;-142.28;100.00
4149;BME280;2088;51.032;7.082;2022-10-04T06:52:21;49170.91;;;-142.28;100.00
4149;BME280;2088;51.032;7.082;2022-10-04T06:58:00;49151.53;;;-142.28;100.00
4149;BME280;2088;51.032;7.082;2022-10-04T07:00:35;49163.16;;;-142.28;100.00
4149;BME280;2088;51.032;7.082;2022-10-04T07:03:11;49167.03;;;-142.28;100.00
4149;BME280;2088;51.032;7.082;2022-10-04T07:05:44;49155.41;;;-142.28;100.00
4149;BME280;2088;51.032;7.082;2022-10-04T07:08:16;49155.41;;;-142.28;100.00
4149;BME280;2088;51.032;7.082;2022-10-04T07:10:58;49147.66;;;-142.28;100.00
4149;BME280;2088;51.032;7.082;2022-10-04T07:13:37;49143.78;;;-142.28;100.00
4149;BME280;2088;51.032;7.082;2022-10-04T07:16:11;49118.63;;;-142.28;100.00
4149;BME280;2088;51.032;7.082;2022-10-04T07:18:54;49077.97;;;-142.28;100.00
4149;BME280;2088;51.032;7.082;2022-10-04T07:21:23;49089.59;;;-142.28;100.00
4149;BME280;2088;51.032;7.082;2022-10-04T07:23:55;49035.38;;;-142.28;100.00
4149;BME280;2088;51.032;7.082;2022-10-04T07:26:27;48985.06;;;-142.28;100.00
4149;BME280;2088;51.032;7.082;2022-10-04T07:28:56;48921.19;;;-142.28;100.00
4149;BME280;2088;51.032;7.082;2022-10-04T07:31:43;48888.28;;;-142.28;100.00
4149;BME280;2088;51.032;7.082;2022-10-04T07:34:16;48859.25;;;-142.28;100.00
4149;BME280;2088;51.032;7.082;2022-10-04T07:36:48;48828.28;;;-142.28;99.30
4149;BME280;2088;51.032;7.082;2022-10-04T07:39:19;48787.63;;;-142.28;98.25
4149;BME280;2088;51.032;7.082;2022-10-04T07:41:51;48760.53;;;-142.28;96.87
4149;BME280;2088;51.032;7.082;2022-10-04T07:44:25;48717.94;;;-142.28;95.56
4149;BME280;2088;51.032;7.082;2022-10-04T07:46:59;48683.09;;;-142.28;93.56
4149;BME280;2088;51.032;7.082;2022-10-04T07:49:27;48644.41;;;-142.28;93.77
4149;BME280;2088;51.032;7.082;2022-10-04T07:52:04;48621.16;;;-142.28;93.24
4149;BME280;2088;51.032;7.082;2022-10-04T07:54:38;48603.75;;;-142.28;92.17
4149;BME280;2088;51.032;7.082;2022-10-04T07:57:13;48566.97;;;-142.28;91.50
4149;BME280;2088;51.032;7.082;2022-10-04T07:59:50;48561.16;;;-142.28;91.04
4149;BME280;2088;51.032;7.082;2022-10-04T08:02:26;48524.41;;;-142.28;90.56
4149;BME280;2088;51.032;7.082;2022-10-04T08:05:07;48543.75;;;-142.28;90.39
4149;BME280;2088;51.032;7.082;2022-10-04T08:07:49;48510.84;;;-142.28;90.13
4149;BME280;2088;51.032;7.082;2022-10-04T08:10:26;48487.63;;;-142.28;89.21
4149;BME280;2088;51.032;7.082;2022-10-04T08:13:03;48477.94;;;-142.28;89.16
4149;BME280;2088;51.032;7.082;2022-10-04T08:15:34;48497.31;;;-142.28;89.45
4149;BME280;2088;51.032;7.082;2022-10-04T08:18:08;48462.47;;;-142.28;88.72
4149;BME280;2088;51.032;7.082;2022-10-04T08:20:45;48448.91;;;-142.28;88.02
4149;BME280;2088;51.032;7.082;2022-10-04T08:23:28;48462.47;;;-142.28;87.97
4149;BME280;2088;51.032;7.082;2022-10-04T08:26:10;48441.19;;;-142.28;88.32
4149;BME280;2088;51.032;7.082;2022-10-04T08:28:48;48443.13;;;-142.28;88.40
4149;BME280;2088;51.032;7.082;2022-10-04T08:31:42;48433.44;;;-142.28;88.08
4149;BME280;2088;51.032;7.082;2022-10-04T08:34:21;48429.56;;;-142.28;87.58
4149;BME280;2088;51.032;7.082;2022-10-04T08:37:02;48435.38;;;-142.28;87.79
4149;BME280;2088;51.032;7.082;2022-10-04T08:39:53;48427.63;;;-142.28;88.27
4149;BME280;2088;51.032;7.082;2022-10-04T08:42:47;48417.94;;;-142.28;88.06
4149;BME280;2088;51.032;7.082;2022-10-04T08:49:22;48431.50;;;-142.28;88.87
4149;BME280;2088;51.032;7.082;2022-10-04T08:52:39;48404.41;;;-142.28;90.17
4149;BME280;2088;51.032;7.082;2022-10-04T08:55:32;48443.13;;;-142.28;89.91
4149;BME280;2088;51.032;7.082;2022-10-04T08:58:14;48423.75;;;-142.28;89.40
4149;BME280;2088;51.032;7.082;2022-10-04T09:04:12;48410.22;;;-142.28;87.25
4149;BME280;2088;51.032;7.082;2022-10-04T09:06:56;48433.44;;;-142.28;86.48
4149;BME280;2088;51.032;7.082;2022-10-04T09:09:45;48392.78;;;-142.28;85.22
4149;BME280;2088;51.032;7.082;2022-10-04T09:12:45;48361.81;;;-142.28;84.24
4149;BME280;2088;51.032;7.082;2022-10-04T09:15:27;48361.81;;;-142.28;83.44
4149;BME280;2088;51.032;7.082;2022-10-04T09:18:03;48346.34;;;-142.28;84.02
4149;BME280;2088;51.032;7.082;2022-10-04T09:20:46;48361.81;;;-142.28;84.21
4149;BME280;2088;51.032;7.082;2022-10-04T09:23:38;48346.34;;;-142.28;82.58
4149;BME280;2088;51.032;7.082;2022-10-04T09:26:20;48348.28;;;-142.28;83.05
4149;BME280;2088;51.032;7.082;2022-10-04T09:29:07;48330.88;;;-142.28;83.01
4149;BME280;2088;51.032;7.082;2022-10-04T09:32:08;48330.88;;;-142.28;83.27
4149;BME280;2088;51.032;7.082;2022-10-04T09:34:49;48350.22;;;-142.28;83.94
4149;BME280;2088;51.032;7.082;2022-10-04T09:37:30;48361.81;;;-142.28;83.67
4149;BME280;2088;51.032;7.082;2022-10-04T09:40:37;48338.59;;;-142.28;84.80
4149;BME280;2088;51.032;7.082;2022-10-04T09:43:27;48321.19;;;-142.28;84.04
4149;BME280;2088;51.032;7.082;2022-10-04T09:46:12;48334.72;;;-142.28;84.62
4149;BME280;2088;51.032;7.082;2022-10-04T09:48:44;48348.28;;;-142.28;84.82
4149;BME280;2088;51.032;7.082;2022-10-04T09:51:31;48327.00;;;-142.28;83.78
4149;BME280;2088;51.032;7.082;2022-10-04T09:54:24;48330.88;;;-142.28;83.74
4149;BME280;2088;51.032;7.082;2022-10-04T09:57:07;48327.00;;;-142.28;83.39
4149;BME280;2088;51.032;7.082;2022-10-04T09:59:55;48311.50;;;-142.28;83.14
4149;BME280;2088;51.032;7.082;2022-10-04T10:02:44;48311.50;;;-142.28;82.20
4149;BME280;2088;51.032;7.082;2022-10-04T10:05:44;48313.44;;;-142.28;82.08
4149;BME280;2088;51.032;7.082;2022-10-04T10:08:17;48309.56;;;-142.28;82.06
4149;BME280;2088;51.032;7.082;2022-10-04T10:10:57;48307.63;;;-142.28;81.38
4149;BME280;2088;51.032;7.082;2022-10-04T10:14:13;48272.81;;;-142.28;79.81
4149;BME280;2088;51.032;7.082;2022-10-04T10:16:54;48288.28;;;-142.28;78.46
4149;BME280;2088;51.032;7.082;2022-10-04T10:19:48;48270.88;;;-142.28;78.62
4149;BME280;2088;51.032;7.082;2022-10-04T10:22:40;48303.78;;;-142.28;78.56
4149;BME280;2088;51.032;7.082;2022-10-04T10:25:20;48241.84;;;-142.28;76.88
4149;BME280;2088;51.032;7.082;2022-10-04T10:28:03;48257.31;;;-142.28;76.88
4149;BME280;2088;51.032;7.082;2022-10-04T10:30:50;48265.06;;;-142.28;76.15
4149;BME280;2088;51.032;7.082;2022-10-04T10:33:56;48249.59;;;-142.28;74.35
4149;BME280;2088;51.032;7.082;2022-10-04T10:36:47;48220.56;;;-142.28;73.02
4149;BME280;2088;51.032;7.082;2022-10-04T10:39:33;48230.22;;;-142.28;74.56
4149;BME280;2088;51.032;7.082;2022-10-04T10:42:37;48222.47;;;-142.28;72.12
4149;BME280;2088;51.032;7.082;2022-10-04T10:45:18;48162.50;;;-142.28;67.32
4149;BME280;2088;51.032;7.082;2022-10-04T10:47:52;48133.47;;;-142.28;61.04
4149;BME280;2088;51.032;7.082;2022-10-04T10:50:46;48114.13;;;-142.28;58.70
4149;BME280;2088;51.032;7.082;2022-10-04T10:56:33;48077.34;;;-142.28;54.51
4149;BME280;2088;51.032;7.082;2022-10-04T10:59:19;48090.88;;;-142.28;52.75
4149;BME280;2088;51.032;7.082;2022-10-04T11:02:12;48090.88;;;-142.28;50.54
4149;BME280;2088;51.032;7.082;2022-10-04T11:04:56;48052.19;;;-142.28;47.50
4149;BME280;2088;51.032;7.082;2022-10-04T11:07:45;48079.28;;;-142.28;46.01
4149;BME280;2088;51.032;7.082;2022-10-04T11:13:46;48058.00;;;-142.28;44.05
4149;BME280;2088;51.032;7.082;2022-10-04T11:16:39;48077.34;;;-142.28;42.88
4149;BME280;2088;51.032;7.082;2022-10-04T11:19:41;48071.53;;;-142.28;43.28
4149;BME280;2088;51.032;7.082;2022-10-04T11:25:54;48059.94;;;-142.28;41.01
4149;BME280;2088;51.032;7.082;2022-10-04T11:28:26;48094.75;;;-142.28;41.31
4149;BME280;2088;51.032;7.082;2022-10-04T11:31:26;48050.25;;;-142.28;39.00
4149;BME280;2088;51.032;7.082;2022-10-04T11:34:22;48059.94;;;-142.28;38.30
4149;BME280;2088;51.032;7.082;2022-10-04T11:37:00;48059.94;;;-142.28;38.10
4149;BME280;2088;51.032;7.082;2022-10-04T11:39:52;48073.47;;;-142.28;38.17
4149;BME280;2088;51.032;7.082;2022-10-04T11:42:37;48085.09;;;-142.28;38.64
4149;BME280;2088;51.032;7.082;2022-10-04T11:45:27;48065.72;;;-142.28;38.03
4149;BME280;2088;51.032;7.082;2022-10-04T11:48:07;48054.13;;;-142.28;37.45
4149;BME280;2088;51.032;7.082;2022-10-04T11:50:52;48069.59;;;-142.28;37.30
4149;BME280;2088;51.032;7.082;2022-10-04T11:53:54;48071.53;;;-142.28;38.03
4149;BME280;2088;51.032;7.082;2022-10-04T11:56:44;48092.81;;;-142.28;37.32
4149;BME280;2088;51.032;7.082;2022-10-04T11:59:23;48077.34;;;-142.28;37.07
4149;BME280;2088;51.032;7.082;2022-10-04T12:02:12;48063.78;;;-142.28;36.62
4149;BME280;2088;51.032;7.082;2022-10-04T12:04:56;48056.06;;;-142.28;36.75
4149;BME280;2088;51.032;7.082;2022-10-04T12:07:37;48067.66;;;-142.28;35.99
4149;BME280;2088;51.032;7.082;2022-10-04T12:10:23;48065.72;;;-142.28;36.30
4149;BME280;2088;51.032;7.082;2022-10-04T12:16:03;48090.88;;;-142.28;35.43
4149;BME280;2088;51.032;7.082;2022-10-04T12:18:56;48067.66;;;-142.28;35.25
4149;BME280;2088;51.032;7.082;2022-10-04T12:21:40;48106.38;;;-142.28;35.19
4149;BME280;2088;51.032;7.082;2022-10-04T12:27:36;48094.75;;;-142.28;35.20
4149;BME280;2088;51.032;7.082;2022-10-04T12:30:24;48087.03;;;-142.28;34.08
4149;BME280;2088;51.032;7.082;2022-10-04T12:33:05;48046.38;;;-142.28;33.99
4149;BME280;2088;51.032;7.082;2022-10-04T12:35:46;48083.16;;;-142.28;33.76
4149;BME280;2088;51.032;7.082;2022-10-04T12:38:31;48063.78;;;-142.28;33.14
4149;BME280;2088;51.032;7.082;2022-10-04T12:41:09;48067.66;;;-142.28;32.50
4149;BME280;2088;51.032;7.082;2022-10-04T12:43:43;48067.66;;;-142.28;32.64
4149;BME280;2088;51.032;7.082;2022-10-04T12:46:22;48071.53;;;-142.28;32.73
4149;BME280;2088;51.032;7.082;2022-10-04T12:49:15;48048.31;;;-142.28;32.18
4149;BME280;2088;51.032;7.082;2022-10-04T12:51:52;48088.97;;;-142.28;32.05
4149;BME280;2088;51.032;7.082;2022-10-04T12:54:31;48092.81;;;-142.28;32.07
4149;BME280;2088;51.032;7.082;2022-10-04T12:57:09;48077.34;;;-142.28;32.18
4149;BME280;2088;51.032;7.082;2022-10-04T12:59:48;48071.53;;;-142.28;32.31
4149;BME280;2088;51.032;7.082;2022-10-04T13:02:31;48088.97;;;-142.28;32.17
4149;BME280;2088;51.032;7.082;2022-10-04T13:05:05;48087.03;;;-142.28;31.81
4149;BME280;2088;51.032;7.082;2022-10-04T13:10:41;48087.03;;;-142.28;30.83
4149;BME280;2088;51.032;7.082;2022-10-04T13:13:29;48087.03;;;-142.28;30.73
4149;BME280;2088;51.032;7.082;2022-10-04T13:16:06;48052.19;;;-142.28;30.97
4149;BME280;2088;51.032;7.082;2022-10-04T13:18:40;48087.03;;;-142.28;30.60
4149;BME280;2088;51.032;7.082;2022-10-04T13:21:15;48090.88;;;-142.28;30.93
4149;BME280;2088;51.032;7.082;2022-10-04T13:23:55;48040.56;;;-142.28;31.55
4149;BME280;2088;51.032;7.082;2022-10-04T13:26:32;48096.69;;;-142.28;31.88
4149;BME280;2088;51.032;7.082;2022-10-04T13:29:04;48071.53;;;-142.28;31.90
4149;BME280;2088;51.032;7.082;2022-10-04T13:31:37;48088.97;;;-142.28;31.38
4149;BME280;2088;51.032;7.082;2022-10-04T13:34:15;48056.06;;;-142.28;31.12
4149;BME280;2088;51.032;7.082;2022-10-04T13:36:56;48079.28;;;-142.28;31.30
4149;BME280;2088;51.032;7.082;2022-10-04T13:39:45;48083.16;;;-142.28;31.05
4149;BME280;2088;51.032;7.082;2022-10-04T13:42:40;48085.09;;;-142.28;31.03
4149;BME280;2088;51.032;7.082;2022-10-04T13:45:21;48052.19;;;-142.28;30.43
4149;BME280;2088;51.032;7.082;2022-10-04T13:48:20;48092.81;;;-142.28;30.38
4149;BME280;2088;51.032;7.082;2022-10-04T13:53:56;48048.31;;;-142.28;29.78
4149;BME280;2088;51.032;7.082;2022-10-04T13:56:56;48071.53;;;-142.28;30.26
4149;BME280;2088;51.032;7.082;2022-10-04T13:59:31;48058.00;;;-142.28;30.20
4149;BME280;2088;51.032;7.082;2022-10-04T14:02:20;48077.34;;;-142.28;30.26
4149;BME280;2088;51.032;7.082;2022-10-04T14:05:15;48061.88;;;-142.28;31.06
4149;BME280;2088;51.032;7.082;2022-10-04T14:11:09;48077.34;;;-142.28;31.84
4149;BME280;2088;51.032;7.082;2022-10-04T14:17:17;48094.75;;;-142.28;31.14
4149;BME280;2088;51.032;7.082;2022-10-04T14:19:58;48075.41;;;-142.28;30.98
4149;BME280;2088;51.032;7.082;2022-10-04T14:23:10;48071.53;;;-142.28;30.63
4149;BME280;2088;51.032;7.082;2022-10-04T14:35:30;48090.88;;;-142.28;32.07
4149;BME280;2088;51.032;7.082;2022-10-04T14:41:34;48067.66;;;-142.28;31.83
4149;BME280;2088;51.032;7.082;2022-10-04T14:47:20;48071.53;;;-142.28;31.60
4149;BME280;2088;51.032;7.082;2022-10-04T14:50:04;48071.53;;;-142.28;31.44
4149;BME280;2088;51.032;7.082;2022-10-04T14:52:45;48073.47;;;-142.28;31.38